createdAt,value
2023-05-20T00:02:29.088Z,101960.97
2023-05-20T00:04:56.166Z,101953.63
2023-05-20T00:07:23.025Z,101960.59
2023-05-20T00:09:49.992Z,101951.06
2023-05-20T00:12:19.732Z,101949.25
2023-05-20T00:14:46.518Z,101948.41
2023-05-20T00:17:13.157Z,101950.09
2023-05-20T00:19:42.436Z,101944.50
2023-05-20T00:22:09.424Z,101945.56
2023-05-20T00:24:36.162Z,101952.53
2023-05-20T00:27:02.932Z,101948.97
2023-05-20T00:29:29.698Z,101944.63
2023-05-20T00:31:57.585Z,101945.72
2023-05-20T00:34:24.326Z,101935.09
2023-05-20T00:36:51.990Z,101939.00
2023-05-20T00:39:18.785Z,101932.06
2023-05-20T00:41:46.138Z,101928.28
2023-05-20T00:44:12.871Z,101928.13
2023-05-20T00:46:39.652Z,101927.66
2023-05-20T00:49:06.906Z,101925.22
2023-05-20T00:51:34.150Z,101932.16
2023-05-20T00:54:01.015Z,101919.72
2023-05-20T00:56:28.572Z,101915.34
2023-05-20T00:58:56.278Z,101918.50
2023-05-20T01:01:23.083Z,101916.19
2023-05-20T01:03:49.986Z,101913.41
2023-05-20T01:06:16.725Z,101914.03
2023-05-20T01:08:43.594Z,101914.25
2023-05-20T01:11:34.599Z,101911.19
2023-05-20T01:14:06.722Z,101908.53
2023-05-20T01:16:35.947Z,101913.03
2023-05-20T01:19:07.307Z,101907.19
2023-05-20T01:21:34.078Z,101914.63
2023-05-20T01:24:01.832Z,101910.94
2023-05-20T01:26:28.704Z,101904.00
2023-05-20T01:28:58.134Z,101905.94
2023-05-20T01:31:27.851Z,101903.53
2023-05-20T01:33:59.601Z,101905.00
2023-05-20T01:36:28.546Z,101910.47
2023-05-20T01:38:56.282Z,101897.66
2023-05-20T01:41:26.685Z,101898.63
2023-05-20T01:43:55.867Z,101907.88
2023-05-20T01:46:22.801Z,101901.94
2023-05-20T01:48:49.660Z,101895.72
2023-05-20T01:51:16.846Z,101894.63
2023-05-20T01:53:43.778Z,101891.81
2023-05-20T01:56:10.638Z,101887.94
2023-05-20T01:58:37.952Z,101887.44
2023-05-20T02:01:04.822Z,101888.19
2023-05-20T02:03:31.781Z,101886.97
2023-05-20T02:05:59.708Z,101886.81
2023-05-20T02:08:26.761Z,101893.66
2023-05-20T02:10:53.532Z,101883.66
2023-05-20T02:13:20.564Z,101885.84
2023-05-20T02:15:48.473Z,101889.75
2023-05-20T02:18:18.790Z,101890.50
2023-05-20T02:20:45.885Z,101890.63
2023-05-20T02:23:12.657Z,101886.69
2023-05-20T02:25:41.066Z,101888.44
2023-05-20T02:28:10.937Z,101888.16
2023-05-20T02:30:41.202Z,101884.28
2023-05-20T02:33:09.999Z,101883.44
2023-05-20T02:35:37.112Z,101880.84
2023-05-20T02:38:03.914Z,101871.25
2023-05-20T02:40:30.886Z,101875.88
2023-05-20T02:42:58.299Z,101881.34
2023-05-20T02:45:25.124Z,101877.97
2023-05-20T02:47:52.025Z,101878.31
2023-05-20T02:50:19.203Z,101875.75
2023-05-20T02:52:46.342Z,101877.09
2023-05-20T02:55:13.609Z,101869.91
2023-05-20T02:57:40.715Z,101866.75
2023-05-20T03:00:13.476Z,101857.47
2023-05-20T03:02:40.531Z,101859.88
2023-05-20T03:05:08.506Z,101861.22
2023-05-20T03:07:36.541Z,101854.28
2023-05-20T03:10:06.716Z,101849.88
2023-05-20T03:12:33.550Z,101849.00
2023-05-20T03:15:01.118Z,101840.50
2023-05-20T03:17:28.129Z,101834.28
2023-05-20T03:19:54.936Z,101832.34
2023-05-20T03:22:22.720Z,101829.91
2023-05-20T03:24:49.475Z,101830.25
2023-05-20T03:27:16.268Z,101830.88
2023-05-20T03:29:43.128Z,101835.13
2023-05-20T03:32:11.020Z,101828.31
2023-05-20T03:34:38.487Z,101829.53
2023-05-20T03:37:05.889Z,101838.06
2023-05-20T03:39:32.706Z,101840.63
2023-05-20T03:42:00.077Z,101849.41
2023-05-20T03:44:27.044Z,101858.88
2023-05-20T03:46:54.425Z,101860.59
2023-05-20T03:49:21.370Z,101869.72
2023-05-20T03:51:48.088Z,101869.81
2023-05-20T03:54:17.474Z,101876.28
2023-05-20T03:56:49.381Z,101878.06
2023-05-20T03:59:16.382Z,101876.28
2023-05-20T04:01:43.101Z,101882.75
2023-05-20T04:04:10.780Z,101881.50
2023-05-20T04:06:37.639Z,101873.69
2023-05-20T04:09:04.747Z,101876.88
2023-05-20T04:11:31.704Z,101882.75
2023-05-20T04:14:01.476Z,101882.00
2023-05-20T04:16:29.761Z,101886.28
2023-05-20T04:18:59.223Z,101890.63
2023-05-20T04:21:26.212Z,101888.09
2023-05-20T04:23:53.110Z,101894.88
2023-05-20T04:26:20.760Z,101887.81
2023-05-20T04:28:49.728Z,101887.59
2023-05-20T04:31:17.093Z,101884.78
2023-05-20T04:33:44.655Z,101893.94
2023-05-20T04:36:15.420Z,101903.78
2023-05-20T04:38:44.499Z,101904.84
2023-05-20T04:41:11.448Z,101905.06
2023-05-20T04:43:40.288Z,101903.16
2023-05-20T04:46:08.064Z,101912.34
2023-05-20T04:48:35.540Z,101907.84
2023-05-20T04:51:03.190Z,101915.78
2023-05-20T04:53:31.433Z,101913.00
2023-05-20T04:55:58.218Z,101914.94
2023-05-20T04:58:25.190Z,101910.88
2023-05-20T05:00:53.034Z,101915.78
2023-05-20T05:03:20.156Z,101912.47
2023-05-20T05:05:48.065Z,101910.41
2023-05-20T05:08:15.282Z,101904.06
2023-05-20T05:10:49.944Z,101909.34
2023-05-20T05:13:17.152Z,101911.97
2023-05-20T05:15:44.157Z,101906.56
2023-05-20T05:18:12.204Z,101908.25
2023-05-20T05:20:39.174Z,101902.16
2023-05-20T05:23:06.296Z,101904.63
2023-05-20T05:25:33.431Z,101891.13
2023-05-20T05:28:00.526Z,101887.81
2023-05-20T05:30:27.482Z,101890.50
2023-05-20T05:32:54.455Z,101895.88
2023-05-20T05:35:22.699Z,101909.16
2023-05-20T05:37:49.557Z,101899.72
2023-05-20T05:40:16.572Z,101896.91
2023-05-20T05:42:43.385Z,101893.19
2023-05-20T05:45:11.073Z,101891.34
2023-05-20T05:47:38.051Z,101888.56
2023-05-20T05:50:05.330Z,101893.00
2023-05-20T05:52:33.862Z,101889.31
2023-05-20T05:55:03.079Z,101886.03
2023-05-20T05:57:31.103Z,101878.63
2023-05-20T05:59:58.780Z,101884.44
2023-05-20T06:02:26.703Z,101883.88
2023-05-20T06:04:54.298Z,101884.59
2023-05-20T06:07:21.113Z,101875.47
2023-05-20T06:09:47.865Z,101870.59
2023-05-20T06:12:14.628Z,101871.84
2023-05-20T06:14:41.422Z,101868.91
2023-05-20T06:17:08.364Z,101865.59
2023-05-20T06:19:35.312Z,101872.56
2023-05-20T06:22:02.233Z,101873.94
2023-05-20T06:24:30.187Z,101870.25
2023-05-20T06:26:57.184Z,101866.84
2023-05-20T06:29:24.549Z,101868.94
2023-05-20T06:31:51.309Z,101857.97
2023-05-20T06:34:18.111Z,101863.31
2023-05-20T06:36:44.778Z,101856.84
2023-05-20T06:39:12.618Z,101856.69
2023-05-20T06:41:42.353Z,101862.56
2023-05-20T06:44:10.590Z,101852.31
2023-05-20T06:46:56.179Z,101856.53
2023-05-20T06:49:24.142Z,101855.66
2023-05-20T06:51:51.596Z,101861.59
2023-05-20T06:54:18.808Z,101846.94
2023-05-20T06:56:47.186Z,101849.25
2023-05-20T06:59:15.674Z,101843.88
2023-05-20T07:01:43.533Z,101850.72
2023-05-20T07:04:10.882Z,101845.94
2023-05-20T07:06:38.108Z,101848.63
2023-05-20T07:09:05.561Z,101845.94
2023-05-20T07:11:33.165Z,101848.88
2023-05-20T07:14:00.445Z,101850.47
2023-05-20T07:16:29.678Z,101847.44
2023-05-20T07:18:56.506Z,101851.13
2023-05-20T07:21:24.375Z,101847.72
2023-05-20T07:24:11.519Z,101854.22
2023-05-20T07:26:38.415Z,101859.41
2023-05-20T07:29:05.462Z,101852.81
2023-05-20T07:31:33.014Z,101859.25
2023-05-20T07:33:59.822Z,101845.31
2023-05-20T07:36:28.293Z,101841.31
2023-05-20T07:39:04.235Z,101843.81
2023-05-20T07:41:34.951Z,101838.22
2023-05-20T07:44:05.427Z,101835.78
2023-05-20T07:46:34.937Z,101829.53
2023-05-20T07:49:01.813Z,101837.84
2023-05-20T07:51:28.606Z,101838.34
2023-05-20T07:53:55.897Z,101835.34
2023-05-20T07:56:22.984Z,101840.00
2023-05-20T07:59:00.948Z,101845.94
2023-05-20T08:01:31.911Z,101846.66
2023-05-20T08:03:59.365Z,101851.66
2023-05-20T08:06:29.370Z,101856.88
2023-05-20T08:08:57.551Z,101850.00
2023-05-20T08:11:33.396Z,101852.94
2023-05-20T08:14:00.739Z,101860.28
2023-05-20T08:16:33.267Z,101855.44
2023-05-20T08:19:00.999Z,101861.81
2023-05-20T08:21:27.732Z,101863.31
2023-05-20T08:23:54.975Z,101861.41
2023-05-20T08:26:22.122Z,101857.69
2023-05-20T08:28:50.638Z,101854.34
2023-05-20T08:31:19.467Z,101855.00
2023-05-20T08:33:46.565Z,101857.34
2023-05-20T08:36:13.659Z,101853.66
2023-05-20T08:38:40.488Z,101855.50
2023-05-20T08:41:07.486Z,101855.63
2023-05-20T08:43:37.231Z,101849.00
2023-05-20T08:46:07.002Z,101846.94
2023-05-20T08:48:35.968Z,101843.66
2023-05-20T08:51:04.531Z,101842.41
2023-05-20T08:53:31.445Z,101842.94
2023-05-20T08:56:03.757Z,101841.28
2023-05-20T08:58:31.530Z,101837.09
2023-05-20T09:01:02.095Z,101832.06
2023-05-20T09:03:29.095Z,101834.16
2023-05-20T09:06:09.652Z,101834.81
2023-05-20T09:08:36.608Z,101834.75
2023-05-20T09:11:03.457Z,101830.56
2023-05-20T09:13:32.793Z,101837.84
2023-05-20T09:16:01.567Z,101838.84
2023-05-20T09:18:29.398Z,101839.88
2023-05-20T09:20:56.984Z,101838.03
2023-05-20T09:23:25.671Z,101841.75
2023-05-20T09:25:53.088Z,101840.53
2023-05-20T09:28:24.472Z,101837.38
2023-05-20T09:30:54.062Z,101843.94
2023-05-20T09:33:21.946Z,101832.06
2023-05-20T09:35:49.508Z,101830.25
2023-05-20T09:38:17.762Z,101828.00
2023-05-20T09:40:46.698Z,101818.28
2023-05-20T09:43:13.668Z,101818.22
2023-05-20T09:45:42.015Z,101814.66
2023-05-20T09:48:11.247Z,101809.00
2023-05-20T09:50:38.444Z,101802.38
2023-05-20T09:53:06.589Z,101802.03
2023-05-20T09:55:34.414Z,101801.13
2023-05-20T09:58:03.260Z,101798.75
2023-05-20T10:00:30.388Z,101798.91
2023-05-20T10:02:58.196Z,101791.63
2023-05-20T10:05:29.661Z,101797.97
2023-05-20T10:08:19.031Z,101796.00
2023-05-20T10:11:12.661Z,101797.88
2023-05-20T10:14:04.236Z,101798.84
2023-05-20T10:16:49.715Z,101793.19
2023-05-20T10:19:29.889Z,101791.91
2023-05-20T10:22:08.630Z,101786.69
2023-05-20T10:24:38.318Z,101796.16
2023-05-20T10:27:15.458Z,101783.69
2023-05-20T10:29:50.303Z,101784.53
2023-05-20T10:32:34.717Z,101786.94
2023-05-20T10:35:05.167Z,101782.81
2023-05-20T10:37:43.502Z,101781.72
2023-05-20T10:40:14.101Z,101781.28
2023-05-20T10:42:42.065Z,101771.66
2023-05-20T10:45:09.910Z,101770.50
2023-05-20T10:47:37.383Z,101775.19
2023-05-20T10:50:07.722Z,101774.91
2023-05-20T10:52:37.476Z,101781.00
2023-05-20T10:55:05.097Z,101776.16
2023-05-20T10:57:34.677Z,101773.47
2023-05-20T11:00:02.123Z,101771.34
2023-05-20T11:02:29.584Z,101763.16
2023-05-20T11:04:58.283Z,101764.28
2023-05-20T11:07:32.194Z,101767.56
2023-05-20T11:09:59.206Z,101761.59
2023-05-20T11:12:27.685Z,101759.31
2023-05-20T11:14:55.069Z,101765.97
2023-05-20T11:17:22.104Z,101760.28
2023-05-20T11:19:49.352Z,101758.06
2023-05-20T11:22:16.451Z,101747.28
2023-05-20T11:24:43.241Z,101755.78
2023-05-20T11:27:10.300Z,101741.59
2023-05-20T11:29:37.967Z,101738.50
2023-05-20T11:32:05.193Z,101746.16
2023-05-20T11:34:36.620Z,101744.72
2023-05-20T11:37:07.799Z,101749.28
2023-05-20T11:39:34.717Z,101750.69
2023-05-20T11:42:01.471Z,101742.19
2023-05-20T11:44:28.249Z,101744.16
2023-05-20T11:47:01.043Z,101741.31
2023-05-20T11:49:28.119Z,101739.66
2023-05-20T11:51:54.881Z,101743.16
2023-05-20T11:54:24.103Z,101740.06
2023-05-20T11:56:50.909Z,101738.63
2023-05-20T11:59:17.708Z,101740.59
2023-05-20T12:01:44.734Z,101739.59
2023-05-20T12:04:14.895Z,101736.38
2023-05-20T12:06:44.134Z,101741.31
2023-05-20T12:09:11.383Z,101746.16
2023-05-20T12:11:41.166Z,101743.31
2023-05-20T12:14:08.996Z,101742.63
2023-05-20T12:16:36.850Z,101743.31
2023-05-20T12:19:04.400Z,101732.53
2023-05-20T12:21:31.660Z,101729.56
2023-05-20T12:23:59.823Z,101728.72
2023-05-20T12:26:28.564Z,101732.53
2023-05-20T12:28:56.154Z,101735.19
2023-05-20T12:31:23.084Z,101735.31
2023-05-20T12:33:49.926Z,101718.13
2023-05-20T12:36:16.797Z,101714.84
2023-05-20T12:38:43.596Z,101711.22
2023-05-20T12:41:10.366Z,101716.19
2023-05-20T12:43:39.970Z,101705.03
2023-05-20T12:46:06.783Z,101700.75
2023-05-20T12:48:33.638Z,101700.22
2023-05-20T12:51:02.389Z,101694.25
2023-05-20T12:53:29.183Z,101691.00
2023-05-20T12:55:56.110Z,101697.09
2023-05-20T12:58:23.177Z,101702.13
2023-05-20T13:00:51.385Z,101697.06
2023-05-20T13:03:18.339Z,101695.41
2023-05-20T13:05:45.448Z,101687.19
2023-05-20T13:08:12.962Z,101693.69
2023-05-20T13:10:39.767Z,101687.19
2023-05-20T13:13:06.752Z,101695.13
2023-05-20T13:15:33.786Z,101692.03
2023-05-20T13:18:01.710Z,101693.16
2023-05-20T13:20:29.861Z,101689.06
2023-05-20T13:22:56.696Z,101678.13
2023-05-20T13:25:23.521Z,101683.53
2023-05-20T13:27:50.253Z,101682.94
2023-05-20T13:30:17.112Z,101682.28
2023-05-20T13:32:43.948Z,101688.38
2023-05-20T13:35:10.959Z,101682.91
2023-05-20T13:37:37.768Z,101673.53
2023-05-20T13:40:04.940Z,101680.75
2023-05-20T13:42:31.611Z,101670.53
2023-05-20T13:44:58.432Z,101679.84
2023-05-20T13:47:25.182Z,101675.81
2023-05-20T13:49:52.044Z,101676.06
2023-05-20T13:52:18.978Z,101680.66
2023-05-20T13:54:47.483Z,101684.06
2023-05-20T13:57:14.990Z,101684.38
2023-05-20T13:59:41.764Z,101676.81
2023-05-20T14:02:08.651Z,101662.59
2023-05-20T14:04:40.254Z,101661.28
2023-05-20T14:07:09.578Z,101650.38
2023-05-20T14:09:36.848Z,101649.81
2023-05-20T14:12:04.550Z,101649.81
2023-05-20T14:14:31.504Z,101639.63
2023-05-20T14:16:58.277Z,101639.06
2023-05-20T14:19:28.008Z,101637.41
2023-05-20T14:21:55.887Z,101632.97
2023-05-20T14:24:23.781Z,101635.38
2023-05-20T14:26:50.874Z,101634.22
2023-05-20T14:29:17.743Z,101641.88
2023-05-20T14:31:44.908Z,101639.03
2023-05-20T14:34:12.037Z,101642.97
2023-05-20T14:36:39.401Z,101637.91
2023-05-20T14:39:06.163Z,101631.94
2023-05-20T14:41:32.945Z,101625.25
2023-05-20T14:43:59.717Z,101616.63
2023-05-20T14:46:26.606Z,101613.88
2023-05-20T14:48:53.460Z,101619.84
2023-05-20T14:51:20.308Z,101613.19
2023-05-20T14:53:47.150Z,101612.75
2023-05-20T14:56:13.856Z,101611.31
2023-05-20T14:58:41.289Z,101608.19
2023-05-20T15:01:08.114Z,101609.31
2023-05-20T15:03:35.108Z,101611.03
2023-05-20T15:06:02.209Z,101609.63
2023-05-20T15:08:29.021Z,101608.06
2023-05-20T15:10:55.905Z,101610.44
2023-05-20T15:13:22.777Z,101606.22
2023-05-20T15:15:49.589Z,101601.66
2023-05-20T15:18:16.813Z,101595.44
2023-05-20T15:20:43.910Z,101594.47
2023-05-20T15:23:11.313Z,101587.97
2023-05-20T15:25:38.193Z,101585.00
2023-05-20T15:28:05.102Z,101575.34
2023-05-20T15:30:31.824Z,101582.16
2023-05-20T15:32:58.887Z,101570.97
2023-05-20T15:35:25.766Z,101571.09
2023-05-20T15:37:53.119Z,101571.09
2023-05-20T15:40:19.962Z,101565.16
2023-05-20T15:42:47.463Z,101564.31
2023-05-20T15:45:14.177Z,101563.88
2023-05-20T15:47:41.073Z,101567.13
2023-05-20T15:50:08.722Z,101564.84
2023-05-20T15:52:36.055Z,101564.16
2023-05-20T15:55:03.195Z,101561.03
2023-05-20T15:57:30.753Z,101559.69
2023-05-20T15:59:57.843Z,101569.19
2023-05-20T16:02:25.130Z,101561.19
2023-05-20T16:04:52.495Z,101566.56
2023-05-20T16:07:19.437Z,101561.16
2023-05-20T16:09:46.340Z,101561.75
2023-05-20T16:12:13.273Z,101559.06
2023-05-20T16:14:40.023Z,101550.59
2023-05-20T16:17:06.788Z,101548.56
2023-05-20T16:19:33.622Z,101542.47
2023-05-20T16:22:00.455Z,101534.97
2023-05-20T16:24:27.279Z,101534.84
2023-05-20T16:26:54.357Z,101540.50
2023-05-20T16:29:21.452Z,101540.16
2023-05-20T16:31:48.320Z,101541.91
2023-05-20T16:34:16.388Z,101546.56
2023-05-20T16:36:45.214Z,101545.56
2023-05-20T16:39:14.079Z,101543.47
2023-05-20T16:41:42.101Z,101543.19
2023-05-20T16:44:09.183Z,101542.50
2023-05-20T16:46:39.541Z,101537.94
2023-05-20T16:49:06.479Z,101547.28
2023-05-20T16:51:33.524Z,101542.53
2023-05-20T16:54:00.626Z,101547.03
2023-05-20T16:56:28.173Z,101545.47
2023-05-20T16:59:02.249Z,101545.91
2023-05-20T17:01:33.252Z,101536.72
2023-05-20T17:04:00.296Z,101540.25
2023-05-20T17:06:34.595Z,101550.44
2023-05-20T17:09:13.054Z,101543.91
2023-05-20T17:11:39.950Z,101544.34
2023-05-20T17:14:09.372Z,101543.63
2023-05-20T17:16:38.931Z,101547.59
2023-05-20T17:19:05.784Z,101540.28
2023-05-20T17:21:35.489Z,101525.25
2023-05-20T17:24:02.501Z,101527.25
2023-05-20T17:26:37.323Z,101532.91
2023-05-20T17:31:47.977Z,101524.72
2023-05-20T17:34:18.780Z,101521.03
2023-05-20T17:36:45.800Z,101526.69
2023-05-20T17:39:15.266Z,101529.09
2023-05-20T17:41:48.050Z,101528.41
2023-05-20T17:44:14.891Z,101524.72
2023-05-20T17:46:44.341Z,101523.03
2023-05-20T17:49:11.337Z,101529.97
2023-05-20T17:51:38.389Z,101537.41
2023-05-20T17:54:06.942Z,101527.66
2023-05-20T17:56:39.912Z,101536.72
2023-05-20T17:59:07.977Z,101533.88
2023-05-20T18:01:37.388Z,101531.47
2023-05-20T18:04:13.508Z,101527.22
2023-05-20T18:06:44.963Z,101523.84
2023-05-20T18:09:11.777Z,101529.22
2023-05-20T18:11:41.006Z,101532.31
2023-05-20T18:14:14.052Z,101525.91
2023-05-20T18:16:48.089Z,101529.06
2023-05-20T18:19:15.381Z,101535.69
2023-05-20T18:21:46.078Z,101534.16
2023-05-20T18:24:19.777Z,101536.81
2023-05-20T18:26:56.995Z,101534.81
2023-05-20T18:29:25.678Z,101531.28
2023-05-20T18:31:52.757Z,101533.34
2023-05-20T18:34:19.502Z,101532.75
2023-05-20T18:36:46.322Z,101528.25
2023-05-20T18:39:16.090Z,101523.53
2023-05-20T18:41:51.432Z,101524.41
2023-05-20T18:44:19.596Z,101530.47
2023-05-20T18:46:49.250Z,101540.34
2023-05-20T18:49:16.312Z,101530.56
2023-05-20T18:51:43.083Z,101529.16
2023-05-20T18:54:10.004Z,101527.06
2023-05-20T18:56:37.107Z,101527.88
2023-05-20T18:59:06.049Z,101517.47
2023-05-20T19:01:33.893Z,101512.81
2023-05-20T19:04:01.119Z,101512.56
2023-05-20T19:06:28.234Z,101513.22
2023-05-20T19:08:55.137Z,101507.19
2023-05-20T19:11:21.937Z,101514.94
2023-05-20T19:13:48.627Z,101511.25
2023-05-20T19:16:15.609Z,101509.88
2023-05-20T19:18:42.522Z,101509.81
2023-05-20T19:21:09.534Z,101514.91
2023-05-20T19:23:36.408Z,101508.00
2023-05-20T19:26:03.484Z,101505.81
2023-05-20T19:28:30.259Z,101509.09
2023-05-20T19:30:57.297Z,101506.28
2023-05-20T19:33:24.127Z,101509.22
2023-05-20T19:35:51.034Z,101498.41
2023-05-20T19:38:18.143Z,101504.41
2023-05-20T19:40:45.426Z,101499.69
2023-05-20T19:43:12.244Z,101504.09
2023-05-20T19:45:39.000Z,101510.31
2023-05-20T19:48:06.777Z,101502.16
2023-05-20T19:50:34.206Z,101502.97
2023-05-20T19:53:03.360Z,101494.63
2023-05-20T19:55:30.291Z,101486.88
2023-05-20T19:57:57.293Z,101500.56
2023-05-20T20:00:25.649Z,101499.88
2023-05-20T20:02:52.428Z,101508.00
2023-05-20T20:05:31.748Z,101506.75
2023-05-20T20:07:58.514Z,101509.56
2023-05-20T20:10:25.497Z,101513.78
2023-05-20T20:12:52.287Z,101514.19
2023-05-20T20:15:20.721Z,101513.78
2023-05-20T20:17:52.108Z,101514.72
2023-05-20T20:20:19.408Z,101514.22
2023-05-20T20:22:46.450Z,101519.16
2023-05-20T20:25:16.180Z,101519.78
2023-05-20T20:27:44.212Z,101515.59
2023-05-20T20:30:13.097Z,101515.59
2023-05-20T20:32:40.595Z,101516.16
2023-05-20T20:35:08.216Z,101517.03
2023-05-20T20:37:36.209Z,101523.94
2023-05-20T20:40:04.121Z,101516.59
2023-05-20T20:42:30.892Z,101522.53
2023-05-20T20:44:57.728Z,101520.41
2023-05-20T20:47:29.259Z,101530.47
2023-05-20T20:49:56.653Z,101520.59
2023-05-20T20:52:23.590Z,101522.84
2023-05-20T20:54:53.574Z,101526.53
2023-05-20T20:57:24.574Z,101524.53
2023-05-20T20:59:53.878Z,101520.75
2023-05-20T21:02:21.017Z,101520.88
2023-05-20T21:04:47.864Z,101522.16
2023-05-20T21:07:18.368Z,101514.38
2023-05-20T21:09:45.870Z,101519.28
2023-05-20T21:12:13.083Z,101518.75
2023-05-20T21:14:39.932Z,101514.34
2023-05-20T21:17:06.677Z,101521.94
2023-05-20T21:19:34.777Z,101522.75
2023-05-20T21:22:01.801Z,101513.59
2023-05-20T21:24:32.610Z,101519.31
2023-05-20T21:27:02.965Z,101516.59
2023-05-20T21:29:33.901Z,101514.63
2023-05-20T21:32:00.935Z,101524.47
2023-05-20T21:34:28.073Z,101521.84
2023-05-20T21:36:57.601Z,101525.59
2023-05-20T21:39:33.515Z,101520.50
2023-05-20T21:42:00.562Z,101524.63
2023-05-20T21:44:27.491Z,101527.56
2023-05-20T21:46:54.287Z,101523.19
2023-05-20T21:49:23.572Z,101523.28
2023-05-20T21:51:51.422Z,101523.63
2023-05-20T21:54:18.084Z,101522.31
2023-05-20T21:56:51.582Z,101521.03
2023-05-20T21:59:19.155Z,101522.84
2023-05-20T22:01:48.757Z,101515.22
2023-05-20T22:04:15.574Z,101511.28
2023-05-20T22:06:45.289Z,101513.78
2023-05-20T22:09:14.771Z,101516.94
2023-05-20T22:11:47.878Z,101515.22
2023-05-20T22:14:16.387Z,101513.25
2023-05-20T22:16:47.547Z,101508.94
2023-05-20T22:19:15.739Z,101511.41
2023-05-20T22:21:50.778Z,101501.47
2023-05-20T22:24:18.367Z,101501.59
2023-05-20T22:26:45.280Z,101502.13
2023-05-20T22:29:13.648Z,101497.28
2023-05-20T22:31:41.108Z,101490.84
2023-05-20T22:34:07.918Z,101493.50
2023-05-20T22:36:36.374Z,101490.16
2023-05-20T22:39:17.847Z,101491.38
2023-05-20T22:41:44.928Z,101488.09
2023-05-20T22:44:11.827Z,101491.22
2023-05-20T22:46:38.706Z,101489.03
2023-05-20T22:49:05.676Z,101483.94
2023-05-20T22:51:38.087Z,101488.25
2023-05-20T22:54:06.889Z,101481.88
2023-05-20T22:56:34.857Z,101481.09
2023-05-20T22:59:01.829Z,101480.41
2023-05-20T23:01:28.933Z,101489.75
2023-05-20T23:03:56.254Z,101473.66
2023-05-20T23:06:28.540Z,101480.16
2023-05-20T23:08:55.436Z,101474.78
2023-05-20T23:11:23.449Z,101470.13
2023-05-20T23:13:53.642Z,101461.72
2023-05-20T23:16:21.771Z,101462.28
2023-05-20T23:18:48.585Z,101452.84
2023-05-20T23:21:15.526Z,101448.47
2023-05-20T23:23:47.848Z,101452.00
2023-05-20T23:26:14.889Z,101455.09
2023-05-20T23:28:41.915Z,101453.13
2023-05-20T23:31:09.657Z,101396.63
2023-05-20T23:33:36.556Z,101399.00
2023-05-20T23:36:03.745Z,101400.00
2023-05-20T23:38:30.736Z,101397.88
2023-05-20T23:40:57.522Z,101393.81
2023-05-20T23:43:24.262Z,101393.53
2023-05-20T23:45:51.176Z,101397.59
2023-05-20T23:48:19.911Z,101383.91
2023-05-20T23:50:46.658Z,101385.00
2023-05-20T23:53:13.384Z,101379.09
2023-05-20T23:55:40.117Z,101385.88
2023-05-20T23:58:06.841Z,101383.03
